Time;durP1;ratioP1;P1;durP2;ratioP2;P2;SDS_P1;SDS_P2;PMS_P1;PMS_P2;Temp;Humidity;BMP_temperature;BMP_pressure;BME280_temperature;BME280_humidity;BME280_pressure;Samples;Min_cycle;Max_cycle;Signal;HPM_P1;HPM_P2
2021/07/21 06:34:11;;;;;;;4.83;4.45;;;;;;;17.19;89.45;98340.63;1699791;84;21432;-71
2021/07/21 06:36:41;;;;;;;6.62;5.97;;;;;;;17.18;89.35;98341.62;1699157;84;21141;-70
2021/07/21 06:39:10;;;;;;;5.03;4.50;;;;;;;17.19;89.54;98347.41;1699739;84;20952;-72
2021/07/21 06:41:37;;;;;;;5.25;3.87;;;;;;;17.22;89.50;98353.89;1699951;84;20869;-72
2021/07/21 06:44:05;;;;;;;4.85;4.42;;;;;;;17.24;89.18;98358.66;1699740;84;20929;-72
2021/07/21 06:46:33;;;;;;;6.37;4.85;;;;;;;17.25;89.19;98356.31;1682166;84;20948;-72
2021/07/21 06:49:06;;;;;;;7.03;4.58;;;;;;;17.28;89.28;98356.48;1699294;84;21154;-70
2021/07/21 06:51:33;;;;;;;5.28;4.78;;;;;;;17.28;89.21;98353.30;1699706;84;20987;-73
2021/07/21 06:54:00;;;;;;;7.92;6.17;;;;;;;17.30;88.82;98353.98;1699892;84;20948;-71
2021/07/21 06:56:45;;;;;;;6.30;5.67;;;;;;;17.31;87.74;98354.35;1699801;84;20861;-71
2021/07/21 06:59:32;;;;;;;10.58;8.13;;;;;;;17.30;87.02;98366.20;1667754;84;21489;-70
2021/07/21 07:01:59;;;;;;;5.42;4.90;;;;;;;17.31;87.66;98370.64;1699782;84;22179;-71
2021/07/21 07:04:27;;;;;;;5.60;4.37;;;;;;;17.36;88.16;98362.53;1698720;84;20919;-71
2021/07/21 07:07:11;;;;;;;5.45;4.20;;;;;;;17.44;88.29;98361.30;1642296;87;21016;-71
2021/07/21 07:09:49;;;;;;;4.42;3.90;;;;;;;17.54;88.26;98355.30;1628983;87;20981;-73
2021/07/21 07:12:18;;;;;;;5.60;4.08;;;;;;;17.63;87.73;98358.46;1696457;84;21358;-72
2021/07/21 07:14:44;;;;;;;8.10;4.30;;;;;;;17.70;87.80;98365.00;1699831;83;22117;-72
2021/07/21 07:17:12;;;;;;;6.33;4.28;;;;;;;17.79;87.88;98362.37;1699832;84;20987;-72
2021/07/21 07:19:40;;;;;;;4.42;4.03;;;;;;;17.87;87.97;98362.45;1699846;84;20983;-67
2021/07/21 07:22:06;;;;;;;4.60;3.60;;;;;;;17.96;88.08;98371.07;1700064;84;20920;-71
2021/07/21 07:24:32;;;;;;;4.30;3.75;;;;;;;18.06;87.74;98371.84;1699704;84;20996;-69
2021/07/21 07:26:59;;;;;;;3.95;3.35;;;;;;;18.10;86.56;98369.69;1699970;84;21101;-70
2021/07/21 07:29:27;;;;;;;4.90;3.80;;;;;;;18.13;85.55;98369.86;1699827;84;20892;-80
2021/07/21 07:31:54;;;;;;;4.53;4.08;;;;;;;18.14;85.08;98372.94;1699810;84;20896;-70
2021/07/21 07:34:21;;;;;;;4.47;4.08;;;;;;;18.16;85.72;98376.34;1699624;84;20940;-71
2021/07/21 07:36:48;;;;;;;4.25;3.85;;;;;;;18.18;85.59;98381.15;1699785;84;20904;-70
2021/07/21 07:39:15;;;;;;;7.03;4.55;;;;;;;18.20;85.36;98383.20;1700285;84;21430;-71
2021/07/21 07:41:42;;;;;;;6.42;5.05;;;;;;;18.21;85.24;98380.32;1699629;84;20976;-76
2021/07/21 07:44:09;;;;;;;5.83;5.00;;;;;;;18.23;84.94;98386.45;1699897;84;20861;-72
2021/07/21 07:46:36;;;;;;;4.97;4.50;;;;;;;18.26;85.05;98391.22;1699935;84;20873;-73
2021/07/21 07:49:04;;;;;;;4.70;3.98;;;;;;;18.27;84.50;98395.14;1699956;84;21003;-78
2021/07/21 07:51:31;;;;;;;3.55;3.17;;;;;;;18.27;84.44;98395.66;1699797;84;21500;-72
2021/07/21 07:53:57;;;;;;;3.55;3.02;;;;;;;18.27;84.20;98399.22;1700067;84;21011;-69
2021/07/21 07:56:24;;;;;;;7.00;3.67;;;;;;;18.24;83.83;98398.16;1699796;84;20908;-74
2021/07/21 07:58:52;;;;;;;3.75;3.42;;;;;;;18.21;83.83;98403.43;1700235;84;20952;-79
2021/07/21 08:01:18;;;;;;;5.00;4.12;;;;;;;18.18;83.64;98404.25;1699792;84;20929;-72
2021/07/21 08:03:46;;;;;;;5.12;3.10;;;;;;;18.15;83.93;98404.05;1699992;84;22137;-72
2021/07/21 08:06:14;;;;;;;6.92;3.20;;;;;;;18.15;84.18;98418.15;1699714;84;20909;-73
2021/07/21 08:08:42;;;;;;;7.85;4.47;;;;;;;18.14;84.29;98420.51;1699764;84;20979;-72
2021/07/21 08:11:09;;;;;;;4.65;3.65;;;;;;;18.12;84.11;98414.38;1700009;84;20924;-71
2021/07/21 08:13:35;;;;;;;3.25;2.95;;;;;;;18.13;84.48;98420.14;1700090;84;20888;-71
2021/07/21 08:16:02;;;;;;;7.22;3.60;;;;;;;18.14;84.05;98416.43;1699832;84;21506;-71
2021/07/21 08:18:29;;;;;;;4.17;3.58;;;;;;;18.14;84.18;98424.58;1699814;84;20901;-71
2021/07/21 08:20:55;;;;;;;4.33;3.22;;;;;;;18.13;83.88;98423.74;1699947;84;20912;-71
2021/07/21 08:23:22;;;;;;;4.85;3.58;;;;;;;18.13;84.04;98424.22;1700038;84;20991;-72
2021/07/21 08:25:48;;;;;;;5.87;3.90;;;;;;;18.14;84.38;98415.07;1699881;84;21456;-72
2021/07/21 08:28:14;;;;;;;3.80;3.40;;;;;;;18.16;84.11;98422.55;1700168;84;21501;-73
2021/07/21 08:30:44;;;;;;;4.60;3.20;;;;;;;18.16;83.86;98423.44;1699629;84;21487;-73
2021/07/21 08:33:11;;;;;;;3.35;3.05;;;;;;;18.16;83.75;98418.48;1699681;84;21023;-71
2021/07/21 08:35:44;;;;;;;7.67;4.08;;;;;;;18.16;83.50;98427.99;1699830;84;21385;-72
2021/07/21 08:38:12;;;;;;;4.60;3.55;;;;;;;18.14;84.18;98427.30;1699784;83;20988;-73
2021/07/21 08:40:41;;;;;;;5.67;3.40;;;;;;;18.18;84.25;98432.80;1700176;84;21482;-72
2021/07/21 08:43:11;;;;;;;3.85;3.40;;;;;;;18.20;84.22;98433.48;1699706;84;20896;-73
2021/07/21 08:45:43;;;;;;;4.53;3.60;;;;;;;18.23;83.78;98433.17;1699600;84;20928;-73
2021/07/21 08:48:13;;;;;;;5.05;3.98;;;;;;;18.28;84.16;98437.64;1699574;84;20984;-67
2021/07/21 08:50:45;;;;;;;4.55;4.08;;;;;;;18.35;84.20;98432.42;1699544;84;20913;-67
2021/07/21 08:53:15;;;;;;;6.17;2.85;;;;;;;18.41;83.90;98441.33;1699982;84;21094;-67
2021/07/21 08:55:43;;;;;;;6.22;3.85;;;;;;;18.47;84.03;98437.14;1699710;84;20955;-68
2021/07/21 08:58:12;;;;;;;3.45;3.15;;;;;;;18.53;83.83;98436.52;1699901;84;20948;-75
2021/07/21 09:00:40;;;;;;;4.47;3.22;;;;;;;18.61;83.71;98437.95;1699773;84;21039;-76
2021/07/21 09:03:07;;;;;;;4.30;3.27;;;;;;;18.68;83.66;98439.52;1700120;84;20942;-72
2021/07/21 09:05:37;;;;;;;4.95;3.40;;;;;;;18.73;82.97;98442.14;1699685;82;21559;-71
2021/07/21 09:08:04;;;;;;;6.25;3.35;;;;;;;18.78;82.77;98445.75;1699700;84;20988;-75
2021/07/21 09:10:35;;;;;;;5.50;3.37;;;;;;;18.84;82.79;98444.24;1699837;84;20905;-74
2021/07/21 09:13:01;;;;;;;4.03;3.10;;;;;;;18.91;82.87;98446.73;1699908;84;21504;-73
2021/07/21 09:15:28;;;;;;;3.40;2.95;;;;;;;18.98;82.46;98443.70;1668334;84;20896;-75
2021/07/21 09:18:11;;;;;;;4.53;3.12;;;;;;;19.03;82.12;98442.73;1699801;84;22113;-75
2021/07/21 09:21:00;;;;;;;5.55;3.45;;;;;;;19.09;82.11;98441.23;1699784;84;23674;-77
2021/07/21 09:23:41;;;;;;;7.08;3.27;;;;;;;19.17;82.14;98445.36;1699966;84;20904;-78
2021/07/21 09:26:09;;;;;;;5.10;3.37;;;;;;;19.26;82.62;98447.64;1699700;84;20909;-76
2021/07/21 09:28:38;;;;;;;3.55;3.12;;;;;;;19.36;82.28;98447.52;1699805;84;20932;-73
2021/07/21 09:31:06;;;;;;;3.00;2.67;;;;;;;19.46;82.33;98440.95;1699774;84;21127;-71
2021/07/21 09:33:35;;;;;;;4.72;3.60;;;;;;;19.60;81.89;98441.38;1697836;83;21079;-70
2021/07/21 09:36:05;;;;;;;3.33;3.02;;;;;;;19.73;81.82;98444.48;1689631;85;21514;-72
2021/07/21 09:38:33;;;;;;;4.25;3.70;;;;;;;19.85;80.47;98440.48;1689682;85;21000;-71
2021/07/21 09:41:08;;;;;;;3.45;2.95;;;;;;;19.94;79.79;98435.05;1690182;85;20929;-73
2021/07/21 09:43:35;;;;;;;3.87;3.42;;;;;;;20.00;78.92;98439.33;1689191;85;22051;-69
2021/07/21 09:46:07;;;;;;;4.05;2.90;;;;;;;20.06;78.00;98437.82;1689494;85;20996;-75
2021/07/21 09:48:49;;;;;;;4.80;2.92;;;;;;;20.09;78.76;98447.03;1689642;85;20913;-75
2021/07/21 09:51:34;;;;;;;6.40;3.02;;;;;;;20.12;78.54;98445.34;1690253;85;21485;-72
2021/07/21 09:54:20;;;;;;;3.65;3.35;;;;;;;20.16;78.01;98447.20;1690029;85;20944;-71
2021/07/21 09:56:50;;;;;;;4.17;3.10;;;;;;;20.24;78.82;98447.74;1688896;85;22671;-66
2021/07/21 09:59:32;;;;;;;3.22;2.92;;;;;;;20.35;78.78;98446.05;1689847;85;20940;-67
2021/07/21 10:02:13;;;;;;;4.58;3.30;;;;;;;20.46;79.33;98438.06;1690147;85;21040;-69
2021/07/21 10:04:41;;;;;;;3.90;2.90;;;;;;;20.61;79.17;98445.93;1689822;85;21003;-68
2021/07/21 10:09:45;;;;;;;2.72;2.47;;;;;;;20.96;77.16;98448.53;1689921;85;21917;-68
2021/07/21 10:12:18;;;;;;;5.53;3.45;;;;;;;21.09;76.29;98448.31;1690225;85;20941;-68
2021/07/21 10:14:59;;;;;;;3.47;3.12;;;;;;;21.21;76.67;98448.83;1690048;85;20945;-68
2021/07/21 10:17:27;;;;;;;5.55;3.22;;;;;;;21.34;75.85;98437.87;1690295;85;21058;-68
2021/07/21 10:19:54;;;;;;;4.37;2.52;;;;;;;21.45;75.30;98429.31;1689936;85;21004;-68
2021/07/21 10:22:21;;;;;;;2.58;2.37;;;;;;;21.54;75.17;98432.91;1689867;85;21111;-68
2021/07/21 10:24:48;;;;;;;4.28;1.90;;;;;;;21.58;74.88;98432.36;1689913;85;20940;-67
2021/07/21 10:27:17;;;;;;;2.40;1.72;;;;;;;21.67;74.48;98437.82;1690062;85;20937;-67
2021/07/21 10:29:43;;;;;;;2.37;1.67;;;;;;;21.77;72.98;98435.22;1689859;85;20977;-68
2021/07/21 10:32:14;;;;;;;2.02;1.72;;;;;;;21.87;70.38;98430.90;1666884;85;21004;-67
2021/07/21 10:34:44;;;;;;;5.12;1.80;;;;;;;21.99;69.80;98439.54;1687132;84;21191;-68
2021/07/21 10:37:12;;;;;;;3.00;2.40;;;;;;;22.07;69.41;98440.02;1684406;85;20952;-68
2021/07/21 10:39:38;;;;;;;2.45;1.55;;;;;;;22.13;69.08;98447.51;1684539;84;20901;-68
2021/07/21 10:42:08;;;;;;;3.15;1.60;;;;;;;22.18;69.88;98439.11;1684385;84;20954;-67
2021/07/21 10:44:35;;;;;;;1.65;1.50;;;;;;;22.24;68.93;98447.09;1684425;84;20945;-68
2021/07/21 10:47:01;;;;;;;1.95;1.52;;;;;;;22.28;68.31;98446.20;1684632;85;21889;-68
2021/07/21 10:49:40;;;;;;;2.37;1.70;;;;;;;22.28;67.77;98448.45;1655729;85;20917;-67
2021/07/21 10:54:53;;;;;;;4.22;1.60;;;;;;;22.23;68.18;98446.78;1684921;84;20912;-69
2021/07/21 11:00:16;;;;;;;2.27;1.67;;;;;;;22.21;66.85;98448.82;1684531;85;21061;-68
2021/07/21 11:02:44;;;;;;;2.87;1.40;;;;;;;22.20;66.39;98456.19;1684505;84;20973;-68
2021/07/21 11:05:33;;;;;;;3.33;1.00;;;;;;;22.22;67.07;98464.22;1684615;84;20992;-67
2021/07/21 11:08:01;;;;;;;1.67;1.27;;;;;;;22.27;63.04;98459.05;1684038;84;20941;-68
2021/07/21 11:10:41;;;;;;;1.87;0.90;;;;;;;22.31;60.66;98463.17;1684487;85;21055;-68
2021/07/21 11:13:14;;;;;;;1.70;1.02;;;;;;;22.34;58.76;98468.28;1684555;85;21086;-68
2021/07/21 11:15:44;;;;;;;2.98;0.88;;;;;;;22.35;57.89;98471.86;1684716;85;20976;-68
2021/07/21 11:18:37;;;;;;;2.37;0.78;;;;;;;22.35;58.50;98471.86;1684106;84;20929;-68
2021/07/21 11:21:10;;;;;;;1.15;0.88;;;;;;;22.35;58.01;98475.44;1684382;85;20941;-67
2021/07/21 11:23:57;;;;;;;2.08;1.00;;;;;;;22.34;57.83;98479.23;1684428;85;20897;-68
2021/07/21 11:26:39;;;;;;;1.85;1.07;;;;;;;22.34;58.08;98480.59;1684479;85;21347;-67
2021/07/21 11:29:35;;;;;;;5.55;1.05;;;;;;;22.32;58.31;98481.27;1684322;85;21438;-67
2021/07/21 11:32:01;;;;;;;1.75;1.30;;;;;;;22.31;58.43;98487.80;1684812;85;20981;-67
2021/07/21 11:34:37;;;;;;;3.25;1.15;;;;;;;22.28;58.75;98486.75;1686100;82;21402;-67
2021/07/21 11:37:21;;;;;;;1.37;1.12;;;;;;;22.26;59.10;98490.16;1689832;85;20996;-67
2021/07/21 11:39:54;;;;;;;2.30;1.15;;;;;;;22.24;59.22;98488.12;1666665;85;21145;-68
2021/07/21 11:42:38;;;;;;;1.80;0.70;;;;;;;22.23;58.93;98486.94;1690330;85;21461;-68
2021/07/21 11:45:09;;;;;;;1.47;0.90;;;;;;;22.21;59.06;98489.86;1689354;85;21493;-66
2021/07/21 11:47:59;;;;;;;1.07;0.98;;;;;;;22.18;58.96;98488.84;1689914;85;20920;-68
2021/07/21 11:50:31;;;;;;;1.45;1.10;;;;;;;22.17;59.90;98487.16;1689970;85;20920;-69
2021/07/21 11:53:05;;;;;;;2.37;1.22;;;;;;;22.18;61.03;98487.48;1689809;85;21150;-66
2021/07/21 11:55:37;;;;;;;2.98;1.45;;;;;;;22.21;61.19;98487.13;1689793;85;20996;-67
2021/07/21 11:58:11;;;;;;;2.10;1.45;;;;;;;22.24;60.39;98487.29;1689189;85;20948;-68
2021/07/21 12:00:37;;;;;;;3.37;1.40;;;;;;;22.27;59.88;98486.41;1689827;85;20913;-69
2021/07/21 12:03:09;;;;;;;3.10;1.17;;;;;;;22.28;58.43;98490.86;1689862;85;20936;-69
2021/07/21 12:05:33;;;;;;;2.65;1.25;;;;;;;22.30;58.47;98488.81;1689214;85;21161;-67
2021/07/21 12:08:06;;;;;;;4.75;1.20;;;;;;;22.32;58.92;98494.95;1690103;85;21586;-68
2021/07/21 12:10:33;;;;;;;4.83;1.10;;;;;;;22.31;58.75;98485.06;1689844;85;21445;-68
2021/07/21 12:13:09;;;;;;;1.52;1.27;;;;;;;22.35;60.03;98493.75;1690020;85;21378;-68
2021/07/21 12:15:38;;;;;;;1.42;1.30;;;;;;;22.37;60.63;98492.55;1689908;85;20901;-67
2021/07/21 12:18:14;;;;;;;1.32;1.20;;;;;;;22.38;61.03;98485.19;1689925;85;21160;-67
2021/07/21 12:20:44;;;;;;;2.70;1.32;;;;;;;22.39;61.76;98492.37;1689756;85;21000;-68
2021/07/21 12:23:13;;;;;;;4.42;1.55;;;;;;;22.42;61.70;98485.67;1689779;85;20973;-68
2021/07/21 12:25:41;;;;;;;2.42;1.47;;;;;;;22.46;62.16;98485.66;1689829;82;21436;-67
2021/07/21 12:28:10;;;;;;;2.47;1.37;;;;;;;22.50;62.08;98484.27;1690258;85;20881;-68
2021/07/21 12:30:37;;;;;;;1.70;1.60;;;;;;;22.52;61.04;98485.78;1689908;85;21059;-68
2021/07/21 12:33:05;;;;;;;3.22;1.52;;;;;;;22.53;60.45;98483.39;1689770;85;20977;-68
2021/07/21 12:35:32;;;;;;;3.17;1.42;;;;;;;22.53;60.18;98485.25;1686608;84;20941;-67
2021/07/21 12:38:00;;;;;;;3.42;1.65;;;;;;;22.50;60.21;98478.27;1684355;84;20921;-67
2021/07/21 12:40:29;;;;;;;2.62;1.40;;;;;;;22.48;60.67;98483.09;1684332;85;20929;-67
2021/07/21 12:42:58;;;;;;;1.62;1.30;;;;;;;22.49;61.09;98483.93;1684587;84;21107;-67
2021/07/21 12:45:27;;;;;;;5.03;1.52;;;;;;;22.50;61.31;98486.48;1684241;84;20958;-67
2021/07/21 12:47:56;;;;;;;2.75;1.50;;;;;;;22.52;61.87;98489.04;1684748;84;20996;-67
2021/07/21 12:50:37;;;;;;;3.52;1.30;;;;;;;22.55;61.98;98475.00;1684297;84;21004;-67
2021/07/21 12:53:15;;;;;;;1.90;1.32;;;;;;;22.59;61.55;98483.16;1684457;85;20988;-68
2021/07/21 12:55:40;;;;;;;2.65;1.30;;;;;;;22.62;61.43;98481.43;1684507;84;21787;-66
2021/07/21 12:58:17;;;;;;;1.82;1.52;;;;;;;22.66;60.63;98481.94;1684552;85;20913;-67
2021/07/21 13:00:49;;;;;;;1.40;1.22;;;;;;;22.66;60.47;98478.67;1684435;85;20910;-67
2021/07/21 13:03:20;;;;;;;1.57;1.47;;;;;;;22.68;60.33;98477.97;1684584;85;20925;-67
2021/07/21 13:05:56;;;;;;;4.87;1.52;;;;;;;22.68;60.57;98483.44;1684375;84;20929;-67
2021/07/21 13:08:32;;;;;;;1.85;1.60;;;;;;;22.67;61.07;98480.88;1684360;84;21277;-67
2021/07/21 13:11:11;;;;;;;1.60;1.40;;;;;;;22.68;61.23;98477.13;1684529;84;20902;-66
2021/07/21 13:13:52;;;;;;;1.80;1.70;;;;;;;22.69;61.32;98479.68;1684597;85;20881;-67
2021/07/21 13:16:24;;;;;;;4.87;2.00;;;;;;;22.69;61.11;98474.20;1684286;85;20909;-68
2021/07/21 13:18:51;;;;;;;3.22;1.85;;;;;;;22.69;61.74;98470.10;1684701;85;21032;-68
2021/07/21 13:21:23;;;;;;;1.57;1.45;;;;;;;22.71;62.26;98467.18;1684318;84;21157;-68
2021/07/21 13:23:53;;;;;;;2.25;1.95;;;;;;;22.71;61.48;98468.02;1680808;85;21003;-68
2021/07/21 13:26:21;;;;;;;4.80;1.85;;;;;;;22.72;60.60;98465.62;1684515;84;20965;-68
2021/07/21 13:28:57;;;;;;;3.40;1.85;;;;;;;22.74;61.26;98456.70;1684564;85;20958;-67
2021/07/21 13:31:26;;;;;;;3.60;2.00;;;;;;;22.80;61.44;98467.45;1684548;85;20917;-67
2021/07/21 13:33:55;;;;;;;1.95;1.77;;;;;;;22.83;60.67;98465.72;1684732;85;21446;-68
2021/07/21 13:36:24;;;;;;;2.35;1.65;;;;;;;22.87;60.87;98462.09;1684438;84;20949;-68
2021/07/21 13:39:00;;;;;;;1.98;1.62;;;;;;;22.91;61.20;98460.70;1684460;85;20984;-68
2021/07/21 13:41:33;;;;;;;2.08;1.70;;;;;;;22.97;60.82;98457.22;1684493;85;20960;-68
2021/07/21 13:44:06;;;;;;;2.83;1.72;;;;;;;23.00;60.43;98458.72;1683802;85;20933;-67
2021/07/21 13:46:38;;;;;;;2.98;1.75;;;;;;;23.03;60.36;98459.20;1684558;85;21133;-67
2021/07/21 13:49:10;;;;;;;3.52;1.82;;;;;;;23.07;61.43;98464.65;1684918;85;20901;-67
2021/07/21 13:51:41;;;;;;;4.85;1.70;;;;;;;23.11;60.53;98462.95;1684575;85;20854;-68
2021/07/21 13:54:22;;;;;;;3.45;1.22;;;;;;;23.14;59.64;98462.05;1684789;85;20921;-67
2021/07/21 13:56:58;;;;;;;2.30;1.70;;;;;;;23.19;59.91;98459.63;1684637;85;20909;-67
2021/07/21 13:59:25;;;;;;;1.87;1.50;;;;;;;;;;1684837;84;21358;-68
2021/07/21 14:01:53;;;;;;;1.67;1.50;;;;;;;23.27;60.10;98458.17;1684491;85;20902;-68
2021/07/21 14:04:20;;;;;;;2.72;1.50;;;;;;;23.33;59.69;98457.92;1684874;84;20948;-68
2021/07/21 14:06:46;;;;;;;2.22;1.67;;;;;;;23.37;60.32;98451.04;1684560;85;21505;-67
2021/07/21 14:09:14;;;;;;;2.10;1.52;;;;;;;23.40;59.07;98452.03;1684793;84;21433;-67
2021/07/21 14:11:40;;;;;;;2.83;1.57;;;;;;;23.44;59.08;98447.02;1684654;84;21852;-66
2021/07/21 14:14:07;;;;;;;2.58;1.35;;;;;;;23.48;59.44;98451.59;1684487;85;20901;-67
2021/07/21 14:16:34;;;;;;;6.10;1.50;;;;;;;23.50;59.42;98448.17;1684624;85;20937;-67
2021/07/21 14:19:01;;;;;;;3.72;1.82;;;;;;;23.50;57.25;98452.28;1684653;85;21489;-67
2021/07/21 14:21:28;;;;;;;3.98;1.70;;;;;;;23.47;57.26;98444.44;1684666;84;21363;-67
2021/07/21 14:23:57;;;;;;;2.85;1.70;;;;;;;23.40;57.68;98452.03;1684413;85;22399;-67
2021/07/21 14:26:22;;;;;;;4.42;1.60;;;;;;;23.32;57.44;98452.13;1684360;84;20957;-66
2021/07/21 14:28:50;;;;;;;3.05;2.15;;;;;;;23.26;58.56;98448.77;1685018;85;20914;-67
2021/07/21 14:31:17;;;;;;;1.82;1.57;;;;;;;23.22;59.05;98448.79;1684515;85;20941;-67
2021/07/21 14:33:43;;;;;;;2.77;1.92;;;;;;;23.15;58.15;98450.06;1684852;85;20960;-66
2021/07/21 14:36:09;;;;;;;4.08;1.95;;;;;;;23.06;58.15;98443.77;1693295;84;21091;-67
2021/07/21 14:38:38;;;;;;;2.77;2.08;;;;;;;22.96;57.99;98449.19;1699815;84;20936;-67
2021/07/21 14:41:05;;;;;;;3.95;2.20;;;;;;;22.82;58.64;98458.53;1699910;84;20940;-66
2021/07/21 14:43:35;;;;;;;2.85;2.17;;;;;;;22.65;59.82;98467.38;1699878;84;20991;-66
2021/07/21 14:46:03;;;;;;;5.90;2.55;;;;;;;22.48;60.88;98467.16;1700271;84;20972;-66
2021/07/21 14:48:29;;;;;;;2.42;2.20;;;;;;;22.29;62.21;98462.97;1699897;84;21382;-67
2021/07/21 14:50:56;;;;;;;5.35;2.80;;;;;;;22.14;63.76;98458.27;1700022;84;21357;-66
2021/07/21 14:53:22;;;;;;;4.37;2.33;;;;;;;22.05;64.64;98456.60;1699948;84;20933;-67
2021/07/21 14:55:48;;;;;;;3.52;2.37;;;;;;;21.98;65.13;98455.63;1700169;84;20905;-67
2021/07/21 14:58:15;;;;;;;3.50;2.65;;;;;;;21.90;65.73;98463.35;1699934;84;20940;-66
2021/07/21 15:00:43;;;;;;;4.62;2.72;;;;;;;21.88;66.10;98464.02;1700248;84;21015;-67
2021/07/21 15:03:09;;;;;;;5.40;2.50;;;;;;;21.86;66.09;98461.15;1699898;84;20853;-69
2021/07/21 15:05:37;;;;;;;4.05;2.55;;;;;;;21.83;66.70;98460.98;1668677;84;32543;-68
2021/07/21 15:08:05;;;;;;;6.15;3.08;;;;;;;21.83;67.40;98460.98;1699831;84;20952;-67
2021/07/21 15:10:33;;;;;;;4.67;2.40;;;;;;;21.84;67.14;98459.44;1699939;84;20948;-67
2021/07/21 15:13:01;;;;;;;5.00;2.87;;;;;;;21.86;66.80;98455.68;1699781;84;20956;-67
2021/07/21 15:15:29;;;;;;;3.83;2.60;;;;;;;21.87;67.07;98458.23;1699839;84;20892;-67
2021/07/21 15:17:56;;;;;;;4.70;3.17;;;;;;;21.85;66.93;98452.07;1700120;84;20908;-67
2021/07/21 15:20:22;;;;;;;6.92;2.60;;;;;;;21.84;67.08;98453.13;1699899;84;21517;-67
2021/07/21 15:22:48;;;;;;;6.37;2.75;;;;;;;21.83;67.22;98451.41;1700005;84;20908;-67
2021/07/21 15:25:14;;;;;;;4.05;2.45;;;;;;;21.84;67.25;98455.33;1699869;84;21196;-66
2021/07/21 15:27:41;;;;;;;3.55;2.83;;;;;;;21.86;66.91;98459.25;1700050;84;21066;-68
2021/07/21 15:30:09;;;;;;;4.50;2.27;;;;;;;21.87;67.30;98448.67;1699821;84;20853;-67
2021/07/21 15:32:40;;;;;;;2.77;2.58;;;;;;;21.86;67.76;98453.79;1699832;84;20936;-67
2021/07/21 15:35:10;;;;;;;5.30;2.70;;;;;;;21.87;67.22;98452.77;1699811;84;21382;-67
2021/07/21 15:37:37;;;;;;;6.25;2.35;;;;;;;21.87;66.90;98447.80;1682194;85;21121;-66
2021/07/21 15:40:07;;;;;;;5.42;2.15;;;;;;;21.86;66.58;98446.95;1682587;84;20989;-66
2021/07/21 15:42:34;;;;;;;2.72;2.47;;;;;;;21.88;65.64;98453.09;1682254;84;21506;-66
2021/07/21 15:45:03;;;;;;;4.08;2.45;;;;;;;21.88;65.43;98457.19;1682199;85;21012;-67
2021/07/21 15:47:30;;;;;;;4.55;2.15;;;;;;;21.85;65.10;98457.55;1682595;84;21023;-66
2021/07/21 15:49:58;;;;;;;4.80;2.33;;;;;;;21.82;64.95;98450.56;1682985;84;21355;-67
2021/07/21 15:52:25;;;;;;;2.15;1.85;;;;;;;21.79;64.73;98455.02;1682189;85;20965;-65
2021/07/21 15:54:51;;;;;;;4.03;2.27;;;;;;;21.75;64.88;98452.81;1682751;84;20878;-67
2021/07/21 15:57:17;;;;;;;4.08;2.20;;;;;;;21.71;64.82;98453.69;1682051;85;20945;-67
2021/07/21 15:59:44;;;;;;;2.20;2.00;;;;;;;21.67;65.07;98444.66;1682588;85;20949;-67
2021/07/21 16:02:10;;;;;;;3.30;2.10;;;;;;;21.68;65.07;98454.53;1682530;85;21115;-67
2021/07/21 16:04:37;;;;;;;3.55;2.33;;;;;;;21.67;65.47;98452.33;1681921;84;20937;-67
2021/07/21 16:07:04;;;;;;;2.67;2.37;;;;;;;21.68;65.63;98464.10;1682483;85;20992;-67
2021/07/21 16:09:31;;;;;;;3.37;2.17;;;;;;;21.67;65.39;98456.95;1682529;84;20984;-66
2021/07/21 16:11:59;;;;;;;3.87;2.15;;;;;;;21.65;65.37;98457.97;1682266;85;20937;-66
2021/07/21 16:14:26;;;;;;;3.10;2.40;;;;;;;21.63;65.50;98460.03;1682224;85;22121;-67
2021/07/21 16:16:53;;;;;;;3.87;2.33;;;;;;;21.61;65.44;98459.86;1682395;84;21406;-67
2021/07/21 16:19:19;;;;;;;5.03;2.27;;;;;;;21.61;65.69;98466.17;1682054;85;21406;-66
2021/07/21 16:21:46;;;;;;;2.52;2.33;;;;;;;21.59;65.62;98457.83;1682472;84;21430;-66
2021/07/21 16:24:13;;;;;;;3.72;2.87;;;;;;;21.59;65.39;98477.80;1683616;84;21441;-67
2021/07/21 16:26:46;;;;;;;3.37;2.55;;;;;;;21.55;65.40;98462.77;1682573;85;21089;-67
2021/07/21 16:29:14;;;;;;;5.17;2.80;;;;;;;21.53;64.37;98473.03;1682594;84;20964;-67
2021/07/21 16:31:40;;;;;;;4.05;2.25;;;;;;;21.50;64.12;98469.28;1682384;85;21031;-68
2021/07/21 16:34:07;;;;;;;4.75;2.52;;;;;;;21.46;63.80;98476.95;1682061;85;20949;-66
2021/07/21 16:36:35;;;;;;;2.85;2.50;;;;;;;21.43;63.85;98476.45;1688367;84;20968;-66
2021/07/21 16:39:04;;;;;;;6.17;2.87;;;;;;;21.39;64.13;98475.92;1694453;84;21151;-67
2021/07/21 16:41:30;;;;;;;2.90;2.60;;;;;;;21.36;64.11;98477.64;1692978;84;21346;-65
2021/07/21 16:43:58;;;;;;;4.00;2.47;;;;;;;21.33;64.35;98478.51;1694573;84;20921;-66
2021/07/21 16:46:25;;;;;;;3.27;2.35;;;;;;;21.32;64.61;98476.79;1694667;84;20952;-65
2021/07/21 16:48:51;;;;;;;3.60;2.55;;;;;;;21.27;64.37;98475.45;1695223;84;20916;-66
2021/07/21 16:51:17;;;;;;;2.85;2.42;;;;;;;21.24;64.61;98477.16;1694956;84;21755;-65
2021/07/21 16:53:44;;;;;;;5.17;2.58;;;;;;;21.24;64.71;98482.63;1694937;84;21421;-66
2021/07/21 16:56:10;;;;;;;4.83;2.70;;;;;;;21.20;64.81;98481.25;1694660;84;21502;-66
2021/07/21 16:58:38;;;;;;;2.60;2.30;;;;;;;21.19;64.75;98482.79;1704786;84;21381;-65
2021/07/21 17:01:05;;;;;;;3.35;2.58;;;;;;;21.17;65.10;98485.69;1705147;84;20936;-65
2021/07/21 17:03:32;;;;;;;3.90;2.92;;;;;;;21.16;65.29;98484.50;1705360;84;21776;-65
2021/07/21 17:06:02;;;;;;;6.67;3.50;;;;;;;21.15;65.41;98486.91;1705165;84;20944;-66
2021/07/21 17:08:30;;;;;;;2.92;2.65;;;;;;;21.14;65.49;98488.77;1705258;84;21389;-66
2021/07/21 17:10:57;;;;;;;3.55;2.92;;;;;;;21.13;65.84;98487.08;1705123;84;21370;-66
2021/07/21 17:13:23;;;;;;;3.00;2.55;;;;;;;21.13;65.98;98493.91;1705318;84;21425;-66
2021/07/21 17:15:50;;;;;;;4.17;2.52;;;;;;;21.13;66.17;98493.91;1705128;84;21129;-66
2021/07/21 17:18:18;;;;;;;3.47;2.95;;;;;;;21.12;66.07;98499.02;1704969;84;20881;-66
2021/07/21 17:20:46;;;;;;;6.62;3.80;;;;;;;21.11;66.00;98504.12;1705248;84;21501;-66
2021/07/21 17:23:15;;;;;;;6.35;3.50;;;;;;;21.07;65.90;98502.78;1704979;84;20908;-66
2021/07/21 17:25:43;;;;;;;3.77;2.72;;;;;;;21.02;66.32;98507.39;1705226;84;21417;-66
2021/07/21 17:28:13;;;;;;;6.20;3.50;;;;;;;20.98;66.62;98509.27;1705424;84;21856;-66
2021/07/21 17:30:38;;;;;;;4.50;2.58;;;;;;;20.91;66.80;98509.94;1704947;84;20912;-65
2021/07/21 17:33:04;;;;;;;5.70;3.52;;;;;;;20.85;67.01;98507.89;1705234;84;20932;-67
2021/07/21 17:35:31;;;;;;;5.80;3.00;;;;;;;20.81;67.25;98514.73;1704988;84;20969;-66
2021/07/21 17:37:57;;;;;;;3.60;2.95;;;;;;;20.76;67.25;98510.27;1700188;84;20889;-66
2021/07/21 17:40:26;;;;;;;5.05;2.87;;;;;;;20.71;67.67;98519.48;1699830;84;20904;-66
2021/07/21 17:42:53;;;;;;;6.83;3.55;;;;;;;20.64;68.07;98519.76;1699724;84;20959;-65
2021/07/21 17:45:21;;;;;;;6.55;3.95;;;;;;;20.58;68.27;98519.94;1699846;84;20881;-66
2021/07/21 17:47:50;;;;;;;5.37;3.75;;;;;;;20.53;68.47;98522.32;1699750;84;20877;-67
2021/07/21 17:50:20;;;;;;;7.35;3.17;;;;;;;20.48;68.67;98524.19;1700134;84;20892;-67
2021/07/21 17:52:47;;;;;;;6.35;3.92;;;;;;;20.42;68.36;98523.48;1699927;84;21171;-66
2021/07/21 17:55:13;;;;;;;7.37;4.05;;;;;;;20.37;68.53;98523.98;1699720;84;20944;-67
2021/07/21 17:57:41;;;;;;;5.50;4.10;;;;;;;20.33;68.82;98538.11;1700044;84;20904;-66
2021/07/21 18:00:11;;;;;;;6.05;4.78;;;;;;;20.27;69.17;98537.41;1699938;84;21461;-65
2021/07/21 18:02:43;;;;;;;5.03;3.65;;;;;;;20.23;69.29;98535.53;1700208;84;20877;-65
2021/07/21 18:05:14;;;;;;;6.92;4.08;;;;;;;20.21;69.24;98540.27;1699739;84;21145;-66
2021/07/21 18:07:43;;;;;;;6.20;3.72;;;;;;;20.17;69.08;98542.48;1699663;84;20972;-66
2021/07/21 18:10:11;;;;;;;4.62;4.20;;;;;;;20.13;69.01;98540.25;1699721;84;20962;-66
2021/07/21 18:12:38;;;;;;;8.25;5.00;;;;;;;20.08;69.25;98544.83;1700065;84;20869;-66
2021/07/21 18:15:07;;;;;;;8.55;4.70;;;;;;;20.05;69.31;98543.79;1699895;84;20980;-67
2021/07/21 18:17:35;;;;;;;6.47;5.20;;;;;;;20.01;69.42;98545.16;1700325;84;21110;-66
2021/07/21 18:20:03;;;;;;;9.20;5.45;;;;;;;19.96;69.36;98556.55;1699780;84;20932;-67
2021/07/21 18:22:30;;;;;;;7.05;4.45;;;;;;;19.95;69.49;98553.46;1699905;84;20924;-67
2021/07/21 18:24:56;;;;;;;5.22;4.75;;;;;;;19.92;69.90;98546.13;1699906;84;20904;-67
2021/07/21 18:27:22;;;;;;;5.22;3.25;;;;;;;19.90;70.26;98557.68;1700263;84;20952;-67